Time;durP1;ratioP1;P1;durP2;ratioP2;P2;SDS_P1;SDS_P2;PMS_P1;PMS_P2;Temp;Humidity;BMP_temperature;BMP_pressure;BME280_temperature;BME280_humidity;BME280_pressure;Samples;Min_cycle;Max_cycle;Signal;HPM_P1;HPM_P2
2022/07/22 00:01:41;;;;;;;9.70;6.65;;;25.50;99.90;;;;;;6181190;23;20032;-73
2022/07/22 00:04:09;;;;;;;11.38;6.82;;;25.60;99.90;;;;;;6178530;23;20773;-73
2022/07/22 00:06:36;;;;;;;8.73;6.43;;;25.70;99.90;;;;;;6179981;23;20017;-75
2022/07/22 00:09:03;;;;;;;11.15;7.20;;;25.60;99.90;;;;;;6180513;23;20009;-74
2022/07/22 00:11:29;;;;;;;13.45;6.60;;;25.70;99.90;;;;;;6191649;23;20035;-74
2022/07/22 00:13:56;;;;;;;13.15;7.07;;;25.80;99.90;;;;;;6153855;23;20456;-75
2022/07/22 00:16:22;;;;;;;10.68;6.68;;;25.70;99.90;;;;;;6152540;23;20020;-74
2022/07/22 00:18:47;;;;;;;9.52;6.63;;;25.80;99.90;;;;;;6154391;23;20012;-74
2022/07/22 00:21:13;;;;;;;10.40;6.65;;;25.70;99.90;;;;;;6151293;23;20020;-73
2022/07/22 00:23:40;;;;;;;11.10;6.85;;;25.70;99.90;;;;;;6179748;23;20038;-74
2022/07/22 00:26:06;;;;;;;10.98;6.65;;;25.80;99.90;;;;;;6178950;23;20021;-74
2022/07/22 00:28:32;;;;;;;8.13;6.10;;;25.70;99.90;;;;;;6180125;23;20096;-73
2022/07/22 00:30:58;;;;;;;12.65;7.00;;;25.90;99.90;;;;;;6153495;23;20044;-74
2022/07/22 00:33:24;;;;;;;10.95;6.85;;;25.80;99.90;;;;;;6179034;23;20091;-74
2022/07/22 00:35:50;;;;;;;11.13;7.10;;;25.70;99.90;;;;;;6154119;23;20393;-74
2022/07/22 00:38:16;;;;;;;10.90;6.70;;;25.70;99.90;;;;;;6180016;23;20071;-74
2022/07/22 00:40:42;;;;;;;10.52;7.28;;;25.70;99.90;;;;;;6154503;23;20080;-74
2022/07/22 00:43:07;;;;;;;8.48;6.47;;;25.60;99.90;;;;;;6151828;23;20025;-74
2022/07/22 00:45:34;;;;;;;8.82;7.30;;;25.70;99.90;;;;;;6180152;23;20013;-74
2022/07/22 00:47:59;;;;;;;10.77;7.13;;;25.70;99.90;;;;;;6191231;23;20016;-75
2022/07/22 00:50:25;;;;;;;8.57;6.82;;;25.70;99.90;;;;;;6167281;23;20063;-75
2022/07/22 00:52:52;;;;;;;9.90;7.80;;;25.70;99.90;;;;;;6176403;23;20043;-74
2022/07/22 00:55:18;;;;;;;11.75;7.50;;;25.70;99.90;;;;;;6176952;23;20013;-74
2022/07/22 00:57:43;;;;;;;11.27;7.20;;;25.70;99.90;;;;;;6173719;23;20146;-74
2022/07/22 01:00:16;;;;;;;10.45;7.32;;;25.80;99.90;;;;;;6194230;23;20064;-75
2022/07/22 01:02:42;;;;;;;9.65;6.82;;;25.70;99.90;;;;;;6179779;23;20124;-73
2022/07/22 01:05:08;;;;;;;11.45;6.90;;;25.80;99.90;;;;;;6177057;23;20013;-74
2022/07/22 01:07:36;;;;;;;11.88;6.93;;;25.70;99.90;;;;;;6179708;23;20013;-74
2022/07/22 01:10:03;;;;;;;10.25;7.25;;;25.70;99.90;;;;;;6180155;23;20071;-74
2022/07/22 01:12:29;;;;;;;11.55;6.68;;;25.80;99.90;;;;;;6178800;23;20008;-74
2022/07/22 01:14:55;;;;;;;12.32;6.78;;;25.70;99.90;;;;;;6180995;23;20257;-74
2022/07/22 01:17:21;;;;;;;12.60;6.60;;;25.80;99.90;;;;;;6178321;23;20417;-74
2022/07/22 01:19:47;;;;;;;13.32;6.55;;;25.80;99.90;;;;;;6178148;23;20017;-74
2022/07/22 01:22:13;;;;;;;9.73;6.55;;;25.70;99.90;;;;;;6177395;23;20036;-74
2022/07/22 01:24:39;;;;;;;9.80;6.63;;;25.60;99.90;;;;;;6180352;23;20064;-74
2022/07/22 01:27:05;;;;;;;9.32;7.28;;;25.70;99.90;;;;;;6177512;23;20063;-73
2022/07/22 01:29:30;;;;;;;15.40;7.35;;;25.60;99.90;;;;;;6177708;23;20373;-74
2022/07/22 01:31:56;;;;;;;10.27;7.22;;;25.50;99.90;;;;;;6180207;23;20016;-74
2022/07/22 01:34:22;;;;;;;12.32;7.60;;;25.50;99.90;;;;;;6178774;23;20080;-73
2022/07/22 01:36:50;;;;;;;10.93;6.97;;;25.50;99.90;;;;;;6179675;23;20005;-74
2022/07/22 01:39:16;;;;;;;11.20;7.18;;;25.60;99.90;;;;;;6178615;23;20044;-73
2022/07/22 01:41:42;;;;;;;11.98;7.43;;;25.50;99.90;;;;;;6179892;23;20009;-74
2022/07/22 01:44:14;;;;;;;8.88;6.78;;;25.60;99.90;;;;;;6178031;23;20040;-75
2022/07/22 01:46:40;;;;;;;13.10;7.35;;;25.60;99.90;;;;;;6177650;23;20457;-74
2022/07/22 01:49:06;;;;;;;10.98;6.55;;;25.50;99.90;;;;;;6178218;23;20017;-74
2022/07/22 01:51:31;;;;;;;9.10;6.13;;;25.40;99.90;;;;;;6179578;23;20088;-75
2022/07/22 01:53:57;;;;;;;10.05;6.60;;;25.50;99.90;;;;;;6177899;23;20017;-73
2022/07/22 01:56:24;;;;;;;10.30;6.85;;;25.50;99.90;;;;;;6177622;23;20101;-74
2022/07/22 01:58:50;;;;;;;9.32;6.30;;;25.60;99.90;;;;;;6179924;23;20017;-74
2022/07/22 02:01:16;;;;;;;13.30;6.97;;;25.50;99.90;;;;;;6178580;23;20027;-74
2022/07/22 02:03:41;;;;;;;10.15;6.85;;;25.50;99.90;;;;;;6179857;23;20084;-74
2022/07/22 02:06:07;;;;;;;16.08;7.20;;;25.40;99.90;;;;;;6176885;23;20017;-75
2022/07/22 02:08:33;;;;;;;11.82;7.00;;;25.40;99.90;;;;;;6177769;23;20016;-74
2022/07/22 02:11:00;;;;;;;17.45;6.75;;;25.30;99.90;;;;;;6177253;23;20013;-74
2022/07/22 02:13:26;;;;;;;8.70;6.40;;;25.30;99.90;;;;;;6176726;23;20056;-73
2022/07/22 02:15:53;;;;;;;11.85;7.15;;;25.30;99.90;;;;;;6179593;23;20373;-74
2022/07/22 02:18:19;;;;;;;10.60;7.30;;;25.30;99.90;;;;;;6176261;23;20518;-74
2022/07/22 02:20:46;;;;;;;12.23;6.55;;;25.30;99.90;;;;;;6176918;23;20105;-74
2022/07/22 02:23:12;;;;;;;9.80;5.97;;;25.40;99.90;;;;;;6175709;23;20017;-74
2022/07/22 02:25:40;;;;;;;12.55;6.68;;;25.40;99.90;;;;;;6179413;23;20032;-74
2022/07/22 02:28:06;;;;;;;10.10;6.90;;;25.30;99.90;;;;;;6176200;23;20017;-74
2022/07/22 02:30:32;;;;;;;14.50;6.55;;;25.30;99.90;;;;;;6178408;23;20393;-73
2022/07/22 02:32:59;;;;;;;8.57;6.25;;;25.30;99.90;;;;;;6179447;23;20466;-74
2022/07/22 02:35:25;;;;;;;9.52;6.50;;;25.30;99.90;;;;;;6179370;23;20023;-74
2022/07/22 02:37:51;;;;;;;9.90;6.18;;;25.30;99.90;;;;;;6178187;23;20063;-74
2022/07/22 02:40:17;;;;;;;11.65;6.50;;;25.30;99.90;;;;;;6176076;23;20017;-74
2022/07/22 02:42:43;;;;;;;11.48;6.30;;;25.20;99.90;;;;;;6179445;23;20428;-74
2022/07/22 02:45:09;;;;;;;9.70;6.25;;;25.20;99.90;;;;;;6178065;23;20143;-75
2022/07/22 02:47:35;;;;;;;7.32;5.88;;;25.20;99.90;;;;;;6179418;23;20340;-74
2022/07/22 02:50:01;;;;;;;8.32;5.75;;;25.30;99.90;;;;;;6177082;23;20380;-74
2022/07/22 02:52:27;;;;;;;8.18;5.72;;;25.30;99.90;;;;;;6178729;23;20068;-74
2022/07/22 02:54:53;;;;;;;12.48;6.60;;;25.30;99.90;;;;;;6178235;23;20033;-74
2022/07/22 02:57:19;;;;;;;11.27;5.65;;;25.30;99.90;;;;;;6176920;23;20036;-74
2022/07/22 02:59:45;;;;;;;9.38;6.03;;;25.20;99.90;;;;;;6179034;23;20037;-75
2022/07/22 03:02:10;;;;;;;8.50;6.05;;;25.20;99.90;;;;;;6165589;23;20115;-76
2022/07/22 03:04:36;;;;;;;10.23;6.13;;;25.10;99.90;;;;;;6177501;23;20009;-74
2022/07/22 03:07:02;;;;;;;9.48;6.35;;;25.00;99.90;;;;;;6175828;23;20020;-74
2022/07/22 03:09:28;;;;;;;11.40;6.93;;;25.00;99.90;;;;;;6176954;23;20005;-74
2022/07/22 03:11:54;;;;;;;11.23;7.05;;;25.00;99.90;;;;;;6176792;23;20020;-73
2022/07/22 03:14:21;;;;;;;9.85;6.88;;;25.00;99.90;;;;;;6175889;23;20020;-74
2022/07/22 03:16:47;;;;;;;9.40;6.85;;;25.00;99.90;;;;;;6177662;23;20023;-74
2022/07/22 03:19:14;;;;;;;9.73;6.88;;;25.00;99.90;;;;;;6177889;23;20014;-74
2022/07/22 03:21:40;;;;;;;10.75;7.03;;;25.00;99.90;;;;;;6178656;23;20398;-74
2022/07/22 03:24:05;;;;;;;10.60;7.07;;;24.90;99.90;;;;;;6175616;23;20036;-75
2022/07/22 03:26:31;;;;;;;9.60;6.25;;;24.90;99.90;;;;;;6179515;23;20434;-74
2022/07/22 03:28:57;;;;;;;9.23;6.55;;;24.90;99.90;;;;;;6179321;23;20326;-74
2022/07/22 03:31:23;;;;;;;11.05;6.70;;;24.90;99.90;;;;;;6179562;23;20064;-74
2022/07/22 03:33:50;;;;;;;12.35;6.97;;;25.00;99.90;;;;;;6181186;23;20024;-74
2022/07/22 03:36:15;;;;;;;8.82;6.47;;;24.90;99.90;;;;;;6180190;23;20021;-74
2022/07/22 03:38:41;;;;;;;9.25;6.55;;;24.90;99.90;;;;;;6180117;23;20425;-74
2022/07/22 03:41:07;;;;;;;10.90;6.85;;;24.80;99.90;;;;;;6178906;23;20055;-73
2022/07/22 03:43:33;;;;;;;9.82;6.47;;;24.90;99.90;;;;;;6181059;23;20097;-73
2022/07/22 03:45:59;;;;;;;8.70;6.20;;;24.90;99.90;;;;;;6180765;23;20021;-74
2022/07/22 03:48:26;;;;;;;9.45;6.47;;;24.90;99.90;;;;;;6169964;23;20491;-74
2022/07/22 03:50:52;;;;;;;8.40;5.55;;;24.90;99.90;;;;;;6199811;23;20013;-73
2022/07/22 03:53:20;;;;;;;9.25;6.15;;;25.00;99.90;;;;;;6181029;23;20321;-74
2022/07/22 03:55:46;;;;;;;8.32;5.78;;;25.00;99.90;;;;;;6181743;23;20017;-73
2022/07/22 03:58:12;;;;;;;9.63;5.82;;;25.00;99.90;;;;;;6181355;23;20349;-73
2022/07/22 04:00:37;;;;;;;9.55;6.47;;;25.00;99.90;;;;;;6180246;23;20013;-74
2022/07/22 04:03:03;;;;;;;9.73;5.97;;;24.90;99.90;;;;;;6179560;23;20441;-74
2022/07/22 04:05:29;;;;;;;7.88;6.05;;;25.00;99.90;;;;;;6180501;23;20013;-75
2022/07/22 04:07:56;;;;;;;7.40;5.90;;;24.90;99.90;;;;;;6181482;23;20017;-74
2022/07/22 04:10:22;;;;;;;10.60;6.20;;;24.90;99.90;;;;;;6180274;23;20017;-74
2022/07/22 04:12:48;;;;;;;7.53;5.65;;;25.00;99.90;;;;;;6179244;23;20025;-75
2022/07/22 04:15:14;;;;;;;7.32;5.80;;;25.00;99.90;;;;;;6180164;23;20013;-72
2022/07/22 04:17:40;;;;;;;7.10;5.32;;;25.00;99.90;;;;;;6180801;23;20032;-74
2022/07/22 04:20:08;;;;;;;9.60;5.65;;;25.00;99.90;;;;;;6166582;23;20380;-74
2022/07/22 04:22:33;;;;;;;9.48;6.35;;;24.90;99.90;;;;;;6179862;23;20021;-74
2022/07/22 04:24:59;;;;;;;9.57;5.57;;;25.00;99.90;;;;;;6179133;23;20058;-74
2022/07/22 04:27:25;;;;;;;9.05;5.63;;;24.90;99.90;;;;;;6181416;23;20094;-74
2022/07/22 04:29:51;;;;;;;9.23;5.88;;;25.00;99.90;;;;;;6188466;23;20036;-74
2022/07/22 04:32:16;;;;;;;8.63;5.65;;;25.00;99.90;;;;;;6179967;23;20040;-73
2022/07/22 04:34:43;;;;;;;11.02;6.07;;;25.00;99.90;;;;;;6179306;23;20036;-74
2022/07/22 04:37:08;;;;;;;9.75;5.55;;;24.90;99.90;;;;;;6177867;23;20013;-74
2022/07/22 04:39:34;;;;;;;8.32;6.00;;;25.00;99.90;;;;;;6180288;23;20121;-74
2022/07/22 04:42:00;;;;;;;8.52;5.80;;;24.90;99.90;;;;;;6179800;23;20017;-74
2022/07/22 04:44:27;;;;;;;8.07;5.32;;;24.90;99.90;;;;;;6176788;23;20063;-75
2022/07/22 04:46:53;;;;;;;8.73;5.97;;;24.90;99.90;;;;;;6180406;23;20021;-75
2022/07/22 04:49:19;;;;;;;8.82;5.80;;;24.90;99.90;;;;;;6178161;23;20009;-74
2022/07/22 04:51:45;;;;;;;6.32;5.32;;;24.90;99.90;;;;;;6154169;23;20077;-73
2022/07/22 04:54:11;;;;;;;9.55;6.28;;;25.00;99.90;;;;;;6178233;23;20016;-74
2022/07/22 04:56:36;;;;;;;11.02;6.80;;;25.00;99.90;;;;;;6181160;23;20020;-74
2022/07/22 04:59:02;;;;;;;10.05;7.63;;;25.00;99.90;;;;;;6180629;23;20069;-74
2022/07/22 05:01:28;;;;;;;7.60;6.25;;;25.00;99.90;;;;;;6176601;23;20013;-74
2022/07/22 05:03:54;;;;;;;10.98;6.88;;;25.00;99.90;;;;;;6180026;23;20409;-74
2022/07/22 05:06:19;;;;;;;9.85;5.88;;;25.00;99.90;;;;;;6177150;23;20020;-74
2022/07/22 05:08:46;;;;;;;9.85;5.75;;;25.10;99.90;;;;;;6179135;23;20024;-74
2022/07/22 05:11:12;;;;;;;8.13;5.93;;;25.10;99.90;;;;;;6178146;23;20148;-73
2022/07/22 05:13:38;;;;;;;11.48;8.10;;;25.20;99.90;;;;;;6180299;23;20036;-75
2022/07/22 05:16:05;;;;;;;10.73;5.07;;;25.30;99.90;;;;;;6179400;23;20049;-74
2022/07/22 05:18:31;;;;;;;7.05;4.90;;;25.30;99.90;;;;;;6177848;23;20013;-73
2022/07/22 05:20:57;;;;;;;8.07;5.38;;;25.40;99.90;;;;;;6178539;23;20051;-73
2022/07/22 05:23:22;;;;;;;10.55;5.60;;;25.50;99.90;;;;;;6151334;23;20021;-73
2022/07/22 05:25:48;;;;;;;8.27;4.57;;;25.60;99.90;;;;;;6178506;23;20013;-73
2022/07/22 05:28:14;;;;;;;10.48;4.70;;;25.60;99.90;;;;;;6179026;23;20437;-73
2022/07/22 05:30:40;;;;;;;6.35;4.43;;;25.70;99.90;;;;;;6177372;23;20048;-73
2022/07/22 05:33:06;;;;;;;8.60;4.38;;;25.80;99.90;;;;;;6178907;23;20013;-74
2022/07/22 05:35:31;;;;;;;6.90;4.40;;;25.90;99.90;;;;;;6177480;23;20016;-73
2022/07/22 05:37:57;;;;;;;6.82;4.45;;;26.00;99.90;;;;;;6179951;23;20433;-74
2022/07/22 05:40:23;;;;;;;7.00;4.30;;;26.00;99.90;;;;;;6176766;23;20012;-72
2022/07/22 05:42:49;;;;;;;8.65;4.32;;;26.00;99.90;;;;;;6180652;23;20025;-74
2022/07/22 05:45:15;;;;;;;7.13;4.40;;;26.20;99.90;;;;;;6131534;23;20017;-73
2022/07/22 05:47:40;;;;;;;9.48;4.70;;;26.20;99.90;;;;;;6184131;23;20035;-75
2022/07/22 05:50:06;;;;;;;13.15;4.97;;;26.20;99.90;;;;;;6176433;23;20009;-74
2022/07/22 05:52:35;;;;;;;6.95;4.72;;;26.30;99.90;;;;;;6178371;23;20013;-74
2022/07/22 05:55:00;;;;;;;7.72;4.25;;;26.20;99.90;;;;;;6181361;23;20032;-73
2022/07/22 05:57:26;;;;;;;9.55;4.10;;;26.40;99.90;;;;;;6178470;23;20009;-74
2022/07/22 05:59:52;;;;;;;5.78;4.32;;;26.50;99.90;;;;;;6180111;23;20024;-74
2022/07/22 06:02:18;;;;;;;8.27;3.88;;;26.60;99.90;;;;;;6176675;23;20681;-74
2022/07/22 06:04:43;;;;;;;7.38;3.75;;;26.70;99.90;;;;;;6178854;23;20001;-74
2022/07/22 06:07:09;;;;;;;8.18;4.03;;;27.00;99.90;;;;;;6178570;23;20056;-74
2022/07/22 06:09:35;;;;;;;9.75;4.68;;;27.10;99.90;;;;;;6180635;23;20057;-74
2022/07/22 06:12:01;;;;;;;8.40;5.15;;;27.10;99.90;;;;;;6177330;23;20549;-74
2022/07/22 06:14:26;;;;;;;9.40;4.28;;;27.10;99.90;;;;;;6177215;23;20088;-74
2022/07/22 06:16:52;;;;;;;4.47;3.53;;;27.30;99.90;;;;;;6180714;23;20075;-74
2022/07/22 06:19:18;;;;;;;6.18;3.08;;;27.40;99.90;;;;;;6179082;23;20112;-74
2022/07/22 06:21:44;;;;;;;6.78;2.90;;;27.50;99.90;;;;;;6180128;23;20013;-73
2022/07/22 06:24:09;;;;;;;4.63;2.80;;;27.70;99.90;;;;;;6177625;23;20021;-74
2022/07/22 06:26:35;;;;;;;5.88;2.88;;;27.90;99.90;;;;;;6180048;23;20020;-75
2022/07/22 06:29:01;;;;;;;4.97;2.58;;;27.90;99.90;;;;;;6153802;23;20105;-76
2022/07/22 06:31:27;;;;;;;4.72;2.47;;;28.00;99.90;;;;;;6177373;23;20384;-74
2022/07/22 06:33:53;;;;;;;6.22;2.55;;;28.10;99.90;;;;;;6168875;23;20116;-74
2022/07/22 06:36:18;;;;;;;5.53;2.92;;;28.20;99.90;;;;;;6176983;23;20071;-75
2022/07/22 06:38:47;;;;;;;6.85;2.80;;;28.20;99.90;;;;;;6154869;23;20032;-75
2022/07/22 06:41:13;;;;;;;7.88;2.92;;;28.30;99.90;;;;;;6150624;23;20040;-74
2022/07/22 06:43:41;;;;;;;5.85;2.75;;;28.30;99.90;;;;;;6177623;23;20020;-75
2022/07/22 06:46:06;;;;;;;4.82;3.45;;;28.30;99.90;;;;;;6180343;23;20067;-73
2022/07/22 06:48:33;;;;;;;5.75;3.42;;;28.30;99.90;;;;;;6178903;23;20079;-74
2022/07/22 06:50:59;;;;;;;6.38;3.35;;;28.30;99.90;;;;;;6145239;23;20068;-73
2022/07/22 06:53:24;;;;;;;5.93;3.50;;;28.30;99.90;;;;;;6177068;23;20299;-74
2022/07/22 06:55:50;;;;;;;7.13;3.67;;;28.40;99.90;;;;;;6179729;23;20088;-73
2022/07/22 06:58:16;;;;;;;8.23;3.40;;;28.40;99.90;;;;;;6152790;23;20479;-74
2022/07/22 07:00:42;;;;;;;9.02;3.58;;;28.40;99.90;;;;;;6179458;22;20128;-75
2022/07/22 07:03:08;;;;;;;6.32;3.38;;;28.50;99.90;;;;;;6177428;23;20017;-73
2022/07/22 07:05:33;;;;;;;6.50;3.92;;;28.60;99.90;;;;;;6176921;23;20017;-74
2022/07/22 07:07:59;;;;;;;9.45;3.80;;;28.60;99.90;;;;;;6176982;23;20020;-73
2022/07/22 07:10:25;;;;;;;8.20;3.53;;;28.60;99.90;;;;;;6176036;23;20009;-75
2022/07/22 07:12:56;;;;;;;11.35;3.83;;;28.70;99.90;;;;;;6177916;23;20013;-72
2022/07/22 07:15:22;;;;;;;10.88;5.00;;;28.70;99.90;;;;;;6175956;23;20071;-73
2022/07/22 07:17:47;;;;;;;11.38;4.45;;;28.80;99.90;;;;;;6176215;23;20013;-74
2022/07/22 07:20:13;;;;;;;9.90;4.85;;;28.80;99.90;;;;;;6176291;23;20079;-74
2022/07/22 07:22:39;;;;;;;11.07;5.32;;;28.80;99.90;;;;;;6174731;23;20017;-72
2022/07/22 07:25:08;;;;;;;15.18;5.18;;;28.90;99.90;;;;;;6178464;23;20017;-73
2022/07/22 07:27:34;;;;;;;10.60;4.45;;;28.90;99.90;;;;;;6174389;23;20017;-74
2022/07/22 07:30:01;;;;;;;8.93;3.60;;;29.00;99.90;;;;;;6174063;23;20024;-74
2022/07/22 07:32:27;;;;;;;9.38;3.75;;;29.10;99.90;;;;;;6174054;23;20009;-75
2022/07/22 07:34:53;;;;;;;10.13;3.78;;;29.30;99.90;;;;;;6175028;23;20333;-74
2022/07/22 07:37:19;;;;;;;8.30;3.60;;;29.40;99.90;;;;;;6174344;23;20021;-73
2022/07/22 07:39:44;;;;;;;10.73;4.22;;;29.40;99.90;;;;;;6175728;23;20021;-73
2022/07/22 07:42:10;;;;;;;11.00;3.67;;;29.40;99.90;;;;;;6171921;23;20054;-74
2022/07/22 07:44:36;;;;;;;9.18;3.55;;;29.60;99.90;;;;;;6175362;23;20021;-74
2022/07/22 07:47:02;;;;;;;10.50;3.45;;;29.50;99.90;;;;;;6179872;23;20157;-73
2022/07/22 07:49:28;;;;;;;6.50;3.88;;;29.60;99.90;;;;;;6176038;23;20345;-74
2022/07/22 07:51:54;;;;;;;11.02;4.75;;;29.60;99.90;;;;;;6177650;23;20096;-73
2022/07/22 07:54:20;;;;;;;8.50;4.40;;;29.60;99.90;;;;;;6172256;23;20059;-73
2022/07/22 07:56:46;;;;;;;9.35;4.80;;;29.60;99.90;;;;;;6177044;23;20024;-73
2022/07/22 07:59:12;;;;;;;8.52;4.45;;;29.50;99.90;;;;;;6174795;23;20067;-73
2022/07/22 08:01:37;;;;;;;13.65;4.55;;;29.60;99.90;;;;;;6175466;23;20032;-73
2022/07/22 08:04:03;;;;;;;11.50;5.88;;;29.60;99.90;;;;;;6178115;23;20017;-73
2022/07/22 08:06:29;;;;;;;10.73;5.25;;;29.60;99.90;;;;;;6182143;23;20036;-75
2022/07/22 08:08:55;;;;;;;11.35;5.10;;;29.50;99.90;;;;;;6180055;23;20006;-74
2022/07/22 08:11:21;;;;;;;11.23;5.35;;;29.50;99.90;;;;;;6177517;23;20017;-74
2022/07/22 08:13:47;;;;;;;11.48;5.70;;;29.50;99.90;;;;;;6180619;23;20017;-74
2022/07/22 08:16:12;;;;;;;11.52;5.38;;;29.50;99.90;;;;;;6180267;23;20384;-74
2022/07/22 08:18:38;;;;;;;17.48;5.40;;;29.50;99.90;;;;;;6182428;23;20025;-74
2022/07/22 08:21:04;;;;;;;10.18;5.38;;;29.60;99.90;;;;;;6175207;23;20143;-73
2022/07/22 08:23:31;;;;;;;13.43;5.50;;;29.80;99.90;;;;;;6175736;23;20017;-74
2022/07/22 08:25:57;;;;;;;9.18;4.90;;;29.80;99.90;;;;;;6174759;23;20060;-74
2022/07/22 08:28:23;;;;;;;12.23;5.40;;;29.60;99.90;;;;;;6173779;23;20422;-73
2022/07/22 08:30:50;;;;;;;14.50;5.35;;;29.80;99.90;;;;;;6176305;23;20020;-74
2022/07/22 08:33:16;;;;;;;10.50;4.93;;;29.80;99.90;;;;;;6176107;23;20017;-74
2022/07/22 08:35:42;;;;;;;14.07;5.20;;;29.90;99.90;;;;;;6175103;23;20005;-74
2022/07/22 08:38:07;;;;;;;12.63;5.10;;;29.90;99.90;;;;;;6172426;23;20047;-74
2022/07/22 08:40:33;;;;;;;18.77;5.22;;;29.90;99.90;;;;;;6173689;23;20009;-73
2022/07/22 08:43:02;;;;;;;13.40;5.30;;;29.90;99.90;;;;;;6172515;23;20045;-73
2022/07/22 08:45:32;;;;;;;15.15;5.35;;;30.00;99.90;;;;;;6171908;23;20084;-74
2022/07/22 08:48:02;;;;;;;8.55;5.22;;;30.20;99.90;;;;;;6180580;23;20341;-73
2022/07/22 08:50:30;;;;;;;15.82;5.75;;;30.20;99.90;;;;;;6178813;23;20464;-75
2022/07/22 08:52:56;;;;;;;11.65;6.07;;;30.20;99.90;;;;;;6154894;23;20353;-74
2022/07/22 08:55:22;;;;;;;12.88;7.00;;;30.30;99.90;;;;;;6153272;23;21151;-72
2022/07/22 08:57:50;;;;;;;15.68;6.60;;;30.20;99.90;;;;;;6181739;23;20013;-74
2022/07/22 09:00:20;;;;;;;14.10;7.00;;;30.20;99.90;;;;;;6152081;23;20041;-73
2022/07/22 09:02:46;;;;;;;15.75;7.30;;;30.30;99.90;;;;;;6178849;23;20029;-73
2022/07/22 09:05:14;;;;;;;18.17;7.00;;;30.30;99.90;;;;;;6179530;23;20955;-74
2022/07/22 09:07:42;;;;;;;15.30;7.50;;;30.20;99.90;;;;;;6180294;23;20016;-73
2022/07/22 09:10:14;;;;;;;17.55;7.25;;;30.20;99.90;;;;;;6151639;23;20013;-73
2022/07/22 09:13:00;;;;;;;18.75;7.78;;;30.10;99.90;;;;;;6153100;23;20013;-74
2022/07/22 09:15:29;;;;;;;10.80;6.35;;;30.40;99.90;;;;;;6174201;23;20013;-73
2022/07/22 09:17:56;;;;;;;15.73;6.93;;;30.50;99.90;;;;;;6174341;23;20092;-75
2022/07/22 09:20:22;;;;;;;13.75;7.03;;;30.60;99.90;;;;;;6146148;23;20045;-74
2022/07/22 09:22:49;;;;;;;15.93;6.85;;;30.70;99.90;;;;;;6180492;23;20087;-73
2022/07/22 09:25:26;;;;;;;13.70;6.60;;;30.70;99.90;;;;;;6154456;23;20489;-74
2022/07/22 09:27:54;;;;;;;8.45;6.30;;;30.60;99.90;;;;;;6179831;23;20005;-73
2022/07/22 09:30:25;;;;;;;11.65;6.00;;;30.80;99.90;;;;;;6150172;23;20009;-74
2022/07/22 09:32:56;;;;;;;10.48;6.07;;;31.00;99.90;;;;;;6179262;23;20017;-74
2022/07/22 09:35:22;;;;;;;12.13;5.93;;;31.20;99.90;;;;;;6125641;23;20022;-74
2022/07/22 09:38:02;;;;;;;12.05;6.03;;;31.40;99.90;;;;;;6147827;23;20132;-74
2022/07/22 09:40:30;;;;;;;13.43;5.78;;;31.50;99.90;;;;;;6186039;23;20017;-74
2022/07/22 09:43:01;;;;;;;10.98;5.60;;;31.30;99.90;;;;;;6175787;23;20029;-76
2022/07/22 09:45:28;;;;;;;15.70;7.32;;;31.40;99.90;;;;;;6118442;23;20005;-74
2022/07/22 09:47:56;;;;;;;12.10;5.65;;;31.50;99.90;;;;;;6172758;23;20016;-75
2022/07/22 09:50:27;;;;;;;11.07;5.80;;;31.80;99.90;;;;;;6145740;23;20013;-73
2022/07/22 09:52:55;;;;;;;13.55;5.35;;;31.80;99.90;;;;;;6173163;23;21038;-75
2022/07/22 09:55:23;;;;;;;13.30;5.63;;;31.40;99.90;;;;;;6173342;23;20068;-75
2022/07/22 09:57:50;;;;;;;12.50;5.07;;;31.40;99.90;;;;;;6147180;23;20078;-74
2022/07/22 10:00:20;;;;;;;12.98;5.40;;;31.90;99.90;;;;;;6170958;23;20021;-73
2022/07/22 10:02:50;;;;;;;14.45;5.32;;;31.80;99.90;;;;;;6118086;23;1277254;-72
2022/07/22 10:05:27;;;;;;;11.52;4.97;;;31.60;99.90;;;;;;6145470;23;20092;-74
2022/07/22 10:07:54;;;;;;;9.00;4.85;;;31.80;99.90;;;;;;6146449;23;20015;-72
2022/07/22 10:10:25;;;;;;;15.63;5.68;;;32.00;99.90;;;;;;6146114;23;20036;-74
2022/07/22 10:12:52;;;;;;;12.55;5.65;;;32.20;99.90;;;;;;6146762;23;20005;-73
2022/07/22 10:15:19;;;;;;;14.85;5.20;;;31.90;99.90;;;;;;6171658;23;20024;-73
2022/07/22 10:17:51;;;;;;;15.00;4.60;;;32.10;99.90;;;;;;6173790;23;20013;-72
2022/07/22 10:20:25;;;;;;;13.30;4.53;;;32.40;99.90;;;;;;6171464;23;20021;-74
2022/07/22 10:23:01;;;;;;;10.48;4.32;;;32.60;99.90;;;;;;6165852;23;20017;-73
2022/07/22 10:25:30;;;;;;;8.65;4.90;;;32.20;99.90;;;;;;6167570;23;20009;-73
2022/07/22 10:28:05;;;;;;;11.13;4.80;;;31.90;99.90;;;;;;6139758;23;20082;-73
2022/07/22 10:30:37;;;;;;;7.53;4.20;;;32.30;99.90;;;;;;6163584;23;20009;-74
2022/07/22 10:33:19;;;;;;;11.85;5.25;;;32.30;99.90;;;;;;6150984;23;20088;-73
2022/07/22 10:36:02;;;;;;;12.55;4.85;;;32.40;99.90;;;;;;6178738;23;20295;-74
2022/07/22 10:38:30;;;;;;;17.10;4.68;;;32.60;99.90;;;;;;6151875;23;20104;-74
2022/07/22 10:41:01;;;;;;;14.40;4.40;;;32.50;99.90;;;;;;6178514;22;20076;-73
2022/07/22 10:43:32;;;;;;;11.82;4.28;;;32.70;99.90;;;;;;6135611;23;20016;-75
2022/07/22 10:46:02;;;;;;;11.90;4.85;;;33.00;99.90;;;;;;6178790;23;20009;-73
2022/07/22 10:48:37;;;;;;;11.73;4.70;;;32.90;99.90;;;;;;6179420;23;20017;-75
2022/07/22 10:51:08;;;;;;;10.98;4.55;;;32.60;99.90;;;;;;6152740;23;20015;-74
2022/07/22 10:53:54;;;;;;;20.27;5.13;;;32.60;99.90;;;;;;6180846;23;20024;-73
2022/07/22 10:56:29;;;;;;;10.35;4.90;;;32.50;99.90;;;;;;6154741;23;20017;-74
2022/07/22 10:58:59;;;;;;;11.02;4.03;;;32.80;99.90;;;;;;6180176;23;20012;-74
2022/07/22 11:01:30;;;;;;;9.93;4.30;;;32.90;99.60;;;;;;6179223;23;20017;-74
2022/07/22 11:04:08;;;;;;;8.00;3.90;;;32.70;99.50;;;;;;6154763;23;20056;-73
2022/07/22 11:06:33;;;;;;;13.52;4.00;;;32.70;99.50;;;;;;6129330;23;20377;-73
2022/07/22 11:09:03;;;;;;;11.20;4.65;;;32.80;99.70;;;;;;6180949;23;20021;-73
2022/07/22 11:11:34;;;;;;;7.68;3.92;;;33.10;99.40;;;;;;6153988;23;20009;-74
2022/07/22 11:14:01;;;;;;;9.63;4.63;;;32.70;99.50;;;;;;6156153;23;20444;-74
2022/07/22 11:16:28;;;;;;;7.55;4.10;;;32.70;99.90;;;;;;6131963;23;20491;-73
2022/07/22 11:18:59;;;;;;;8.88;4.10;;;32.40;99.60;;;;;;6181084;23;20044;-74
2022/07/22 11:21:26;;;;;;;;;;;32.20;99.60;;;;;;6179512;23;20013;-73
2022/07/22 11:23:54;;;;;;;8.90;4.07;;;32.50;99.90;;;;;;6181034;23;19916;-74
2022/07/22 11:26:34;;;;;;;12.75;4.55;;;33.00;99.30;;;;;;6180341;23;20018;-74
2022/07/22 11:29:01;;;;;;;10.95;4.68;;;33.20;99.20;;;;;;6154439;23;20013;-74
2022/07/22 11:31:27;;;;;;;13.77;4.40;;;33.00;99.30;;;;;;6163432;23;20067;-73
2022/07/22 11:34:09;;;;;;;11.05;4.40;;;33.20;99.30;;;;;;6154298;23;20349;-73
2022/07/22 11:36:39;;;;;;;8.68;4.47;;;33.10;98.80;;;;;;6138974;23;20020;-73
2022/07/22 11:39:06;;;;;;;6.47;4.57;;;33.00;99.30;;;;;;6179468;23;20040;-73
2022/07/22 11:41:33;;;;;;;9.10;3.90;;;33.00;99.30;;;;;;6179161;23;20013;-73
2022/07/22 11:44:00;;;;;;;9.02;3.88;;;33.00;99.70;;;;;;6175662;23;20039;-73
2022/07/22 11:46:26;;;;;;;10.23;4.15;;;33.00;99.70;;;;;;6165485;23;20013;-74
2022/07/22 11:48:53;;;;;;;8.98;4.38;;;32.50;99.70;;;;;;6154277;23;20013;-75
2022/07/22 11:51:19;;;;;;;12.23;4.07;;;32.40;99.60;;;;;;6153450;23;20713;-73
2022/07/22 11:53:47;;;;;;;7.07;3.45;;;32.80;99.50;;;;;;6180806;23;20017;-73
2022/07/22 11:56:13;;;;;;;7.43;3.83;;;32.80;98.80;;;;;;6180514;23;20017;-74
2022/07/22 11:58:45;;;;;;;11.00;4.07;;;32.80;99.50;;;;;;6154006;23;20006;-74
2022/07/22 12:01:12;;;;;;;;;;;33.60;98.30;;;;;;6179234;23;20021;-74
2022/07/22 12:03:41;;;;;;;11.32;4.35;;;33.80;97.80;;;;;;6180021;23;20325;-75
2022/07/22 12:06:10;;;;;;;8.30;4.35;;;33.00;97.80;;;;;;6152857;23;20016;-73
2022/07/22 12:08:42;;;;;;;7.25;4.10;;;33.50;97.80;;;;;;6180652;23;20143;-74
2022/07/22 12:11:08;;;;;;;;;;;33.70;97.60;;;;;;6178382;23;20092;-73
2022/07/22 12:13:34;;;;;;;10.57;4.43;;;33.30;97.40;;;;;;6180327;23;19915;-74
2022/07/22 12:16:23;;;;;;;11.93;4.07;;;33.60;97.20;;;;;;6178976;23;20367;-74
2022/07/22 12:18:59;;;;;;;9.60;3.90;;;33.50;97.10;;;;;;6137425;23;20032;-74
2022/07/22 12:21:30;;;;;;;7.43;3.42;;;33.60;97.10;;;;;;6179210;23;20005;-74
2022/07/22 12:24:03;;;;;;;9.32;3.65;;;33.10;97.50;;;;;;6179766;23;20092;-73
2022/07/22 12:26:46;;;;;;;7.80;3.92;;;33.00;97.80;;;;;;6164422;23;20008;-73
2022/07/22 12:29:35;;;;;;;10.82;3.83;;;33.70;97.50;;;;;;6178589;23;20039;-73
2022/07/22 12:32:09;;;;;;;12.15;4.85;;;32.60;98.00;;;;;;6150301;23;20013;-74
2022/07/22 12:34:36;;;;;;;10.55;4.20;;;33.40;97.70;;;;;;6153127;23;20013;-73
2022/07/22 12:37:18;;;;;;;7.25;3.47;;;32.90;97.80;;;;;;6177885;23;20020;-73
2022/07/22 12:39:59;;;;;;;10.07;3.83;;;33.20;97.70;;;;;;6197569;23;20092;-74
2022/07/22 12:42:32;;;;;;;10.23;3.90;;;33.50;97.50;;;;;;6179233;23;22931;-74
2022/07/22 12:45:16;;;;;;;7.20;3.55;;;33.10;97.80;;;;;;6118669;23;20452;-74